createdAt,value
2023-03-06T00:00:54.449Z,83.96
2023-03-06T00:03:22.365Z,83.97
2023-03-06T00:05:52.473Z,84.02
2023-03-06T00:08:21.050Z,84.24
2023-03-06T00:10:48.112Z,84.34
2023-03-06T00:13:18.689Z,84.46
2023-03-06T00:15:46.940Z,84.68
2023-03-06T00:18:14.627Z,84.64
2023-03-06T00:20:43.463Z,84.79
2023-03-06T00:23:11.017Z,84.77
2023-03-06T00:25:41.948Z,84.80
2023-03-06T00:28:08.582Z,84.88
2023-03-06T00:30:35.523Z,84.81
2023-03-06T00:33:02.437Z,84.77
2023-03-06T00:35:29.517Z,84.73
2023-03-06T00:37:59.092Z,84.73
2023-03-06T00:40:26.733Z,84.71
2023-03-06T00:42:53.656Z,84.78
2023-03-06T00:45:20.531Z,84.85
2023-03-06T00:47:47.406Z,84.88
2023-03-06T00:50:14.672Z,84.89
2023-03-06T00:52:41.565Z,84.86
2023-03-06T00:55:09.840Z,84.81
2023-03-06T00:57:36.871Z,84.80
2023-03-06T01:00:05.602Z,84.81
2023-03-06T01:02:32.673Z,84.81
2023-03-06T01:04:59.590Z,84.86
2023-03-06T01:07:27.341Z,84.86
2023-03-06T01:09:54.116Z,84.92
2023-03-06T01:12:23.505Z,84.99
2023-03-06T01:14:50.955Z,85.13
2023-03-06T01:17:17.673Z,85.12
2023-03-06T01:19:44.602Z,85.19
2023-03-06T01:22:13.350Z,85.19
2023-03-06T01:24:40.047Z,85.22
2023-03-06T01:27:06.732Z,85.15
2023-03-06T01:29:33.641Z,85.18
2023-03-06T01:32:00.562Z,85.17
2023-03-06T01:34:27.441Z,85.08
2023-03-06T01:36:54.295Z,85.09
2023-03-06T01:39:24.397Z,85.15
2023-03-06T01:41:51.128Z,85.07
2023-03-06T01:44:17.936Z,85.06
2023-03-06T01:46:45.952Z,84.97
2023-03-06T01:49:19.658Z,84.89
2023-03-06T01:51:59.610Z,84.81
2023-03-06T01:54:31.055Z,84.75
2023-03-06T01:57:09.151Z,84.71
2023-03-06T01:59:37.960Z,84.69
2023-03-06T02:02:08.259Z,84.64
2023-03-06T02:04:38.495Z,84.56
2023-03-06T02:07:07.078Z,84.47
2023-03-06T02:09:36.090Z,84.39
2023-03-06T02:12:07.847Z,84.31
2023-03-06T02:14:34.995Z,84.23
2023-03-06T02:17:02.503Z,84.26
2023-03-06T02:19:44.706Z,84.26
2023-03-06T02:22:11.381Z,84.22
2023-03-06T02:25:01.427Z,84.19
2023-03-06T02:27:29.131Z,84.16
2023-03-06T02:29:56.002Z,84.11
2023-03-06T02:32:22.971Z,84.07
2023-03-06T02:34:54.334Z,84.03
2023-03-06T02:37:22.982Z,84.01
2023-03-06T02:39:57.339Z,83.97
2023-03-06T02:42:28.227Z,83.98
2023-03-06T02:44:56.938Z,83.98
2023-03-06T02:47:23.996Z,83.97
2023-03-06T02:49:51.028Z,83.97
2023-03-06T02:52:17.822Z,83.99
2023-03-06T02:54:44.500Z,84.06
2023-03-06T02:57:11.928Z,84.10
2023-03-06T02:59:39.112Z,84.09
2023-03-06T03:02:06.190Z,84.04
2023-03-06T03:04:34.297Z,83.99
2023-03-06T03:07:00.984Z,84.04
2023-03-06T03:09:28.056Z,84.01
2023-03-06T03:11:54.908Z,84.00
2023-03-06T03:14:24.036Z,83.97
2023-03-06T03:16:51.668Z,83.91
2023-03-06T03:19:18.422Z,83.83
2023-03-06T03:21:45.293Z,83.79
2023-03-06T03:24:12.376Z,83.73
2023-03-06T03:26:39.130Z,83.68
2023-03-06T03:29:10.177Z,83.61
2023-03-06T03:31:36.956Z,83.53
2023-03-06T03:34:03.858Z,83.40
2023-03-06T03:36:32.778Z,83.34
2023-03-06T03:38:59.877Z,83.27
2023-03-06T03:41:26.978Z,83.31
2023-03-06T03:43:53.568Z,83.35
2023-03-06T03:46:20.965Z,83.36
2023-03-06T03:48:48.388Z,83.39
2023-03-06T03:51:17.194Z,83.41
2023-03-06T03:53:47.488Z,83.33
2023-03-06T03:56:16.230Z,83.43
2023-03-06T03:58:50.311Z,83.43
2023-03-06T04:01:17.701Z,83.37
2023-03-06T04:03:44.839Z,83.30
2023-03-06T04:06:12.452Z,83.19
2023-03-06T04:08:39.342Z,83.12
2023-03-06T04:11:06.169Z,82.95
2023-03-06T04:13:33.248Z,82.87
2023-03-06T04:16:00.598Z,82.88
2023-03-06T04:18:28.048Z,82.80
2023-03-06T04:20:57.753Z,82.74
2023-03-06T04:23:24.908Z,82.66
2023-03-06T04:25:52.088Z,82.62
2023-03-06T04:28:19.526Z,82.87
2023-03-06T04:30:46.580Z,83.10
2023-03-06T04:33:13.744Z,83.16
2023-03-06T04:35:40.982Z,83.44
2023-03-06T04:38:11.670Z,83.58
2023-03-06T04:40:38.513Z,83.64
2023-03-06T04:43:05.854Z,83.59
2023-03-06T04:45:33.919Z,83.65
2023-03-06T04:48:00.717Z,83.55
2023-03-06T04:50:31.840Z,83.37
2023-03-06T04:53:00.939Z,83.28
2023-03-06T04:55:28.501Z,83.09
2023-03-06T04:57:55.577Z,82.97
2023-03-06T05:00:29.729Z,82.92
2023-03-06T05:03:01.135Z,82.82
2023-03-06T05:05:28.664Z,82.73
2023-03-06T05:07:56.054Z,82.66
2023-03-06T05:10:23.381Z,82.55
2023-03-06T05:12:50.671Z,82.36
2023-03-06T05:15:17.540Z,82.22
2023-03-06T05:17:45.547Z,82.12
2023-03-06T05:20:13.821Z,82.03
2023-03-06T05:22:41.045Z,81.94
2023-03-06T05:25:10.063Z,81.91
2023-03-06T05:27:37.415Z,81.86
2023-03-06T05:30:04.517Z,81.81
2023-03-06T05:32:32.425Z,81.72
2023-03-06T05:35:00.791Z,81.71
2023-03-06T05:37:27.506Z,81.75
2023-03-06T05:39:54.233Z,82.06
2023-03-06T05:42:21.099Z,82.45
2023-03-06T05:44:47.633Z,82.80
2023-03-06T05:47:14.457Z,83.04
2023-03-06T05:49:41.936Z,83.26
2023-03-06T05:52:08.756Z,83.53
2023-03-06T05:54:37.148Z,83.73
2023-03-06T05:57:04.678Z,83.90
2023-03-06T05:59:32.439Z,84.01
2023-03-06T06:02:00.715Z,84.04
2023-03-06T06:04:27.637Z,84.22
2023-03-06T06:06:59.273Z,84.34
2023-03-06T06:09:26.847Z,84.41
2023-03-06T06:11:59.116Z,84.45
2023-03-06T06:14:25.874Z,84.48
2023-03-06T06:16:52.754Z,84.46
2023-03-06T06:19:20.338Z,84.39
2023-03-06T06:21:49.756Z,84.33
2023-03-06T06:24:22.088Z,84.29
2023-03-06T06:26:54.846Z,84.28
2023-03-06T06:29:23.042Z,84.20
2023-03-06T06:31:51.057Z,84.20
2023-03-06T06:34:18.222Z,84.09
2023-03-06T06:36:45.215Z,84.11
2023-03-06T06:39:14.893Z,84.03
2023-03-06T06:41:59.384Z,84.08
2023-03-06T06:44:29.177Z,84.11
2023-03-06T06:49:43.046Z,83.92
2023-03-06T06:52:10.036Z,83.73
2023-03-06T06:54:37.010Z,83.64
2023-03-06T06:57:03.991Z,83.39
2023-03-06T06:59:30.771Z,83.06
2023-03-06T07:01:57.385Z,82.97
2023-03-06T07:04:24.312Z,82.95
2023-03-06T07:06:54.203Z,83.10
2023-03-06T07:09:21.716Z,83.18
2023-03-06T07:11:48.807Z,83.10
2023-03-06T07:14:15.810Z,83.18
2023-03-06T07:16:42.346Z,83.23
2023-03-06T07:19:09.348Z,83.17
2023-03-06T07:21:35.993Z,83.11
2023-03-06T07:24:02.935Z,83.11
2023-03-06T07:26:30.405Z,83.05
2023-03-06T07:28:57.994Z,83.01
2023-03-06T07:31:26.714Z,83.04
2023-03-06T07:33:54.809Z,83.11
2023-03-06T07:36:23.180Z,83.27
2023-03-06T07:38:49.867Z,83.34
2023-03-06T07:41:19.770Z,83.03
2023-03-06T07:43:48.102Z,83.05
2023-03-06T07:46:14.972Z,82.70
2023-03-06T07:48:42.541Z,82.43
2023-03-06T07:51:20.787Z,82.31
2023-03-06T07:53:48.775Z,82.43
2023-03-06T07:56:16.285Z,82.14
2023-03-06T07:58:44.974Z,82.05
2023-03-06T08:01:16.377Z,82.03
2023-03-06T08:03:43.562Z,81.94
2023-03-06T08:06:16.819Z,81.71
2023-03-06T08:08:45.858Z,81.74
2023-03-06T08:11:14.662Z,81.70
2023-03-06T08:13:42.053Z,81.31
2023-03-06T08:16:09.677Z,81.32
2023-03-06T08:18:38.983Z,81.24
2023-03-06T08:21:11.677Z,80.78
2023-03-06T08:23:39.696Z,79.92
2023-03-06T08:26:10.212Z,79.64
2023-03-06T08:28:37.029Z,78.63
2023-03-06T08:31:23.387Z,79.29
2023-03-06T08:33:50.152Z,79.41
2023-03-06T08:36:17.029Z,79.07
2023-03-06T08:38:43.696Z,79.33
2023-03-06T08:41:10.344Z,78.68
2023-03-06T08:43:37.280Z,78.27
2023-03-06T08:46:04.278Z,77.07
2023-03-06T08:48:31.216Z,76.83
2023-03-06T08:50:58.114Z,76.93
2023-03-06T08:53:40.471Z,77.58
2023-03-06T08:56:17.885Z,78.45
2023-03-06T08:58:45.070Z,76.42
2023-03-06T09:01:31.864Z,75.57
2023-03-06T09:04:01.338Z,75.48
2023-03-06T09:06:31.694Z,75.64
2023-03-06T09:08:59.417Z,75.67
2023-03-06T09:11:27.313Z,75.48
2023-03-06T09:13:54.611Z,75.65
2023-03-06T09:16:21.912Z,75.68
2023-03-06T09:18:52.242Z,76.74
2023-03-06T09:21:23.439Z,76.28
2023-03-06T09:23:50.781Z,76.64
2023-03-06T09:26:18.071Z,76.57
2023-03-06T09:28:45.895Z,76.17
2023-03-06T09:31:17.754Z,76.53
2023-03-06T09:33:44.977Z,75.51
2023-03-06T09:36:18.669Z,75.70
2023-03-06T09:38:47.637Z,75.54
2023-03-06T09:41:34.927Z,74.78
2023-03-06T09:44:04.928Z,74.86
2023-03-06T09:46:46.960Z,74.15
2023-03-06T09:49:34.778Z,75.73
2023-03-06T09:52:04.492Z,75.55
2023-03-06T09:54:43.485Z,75.20
2023-03-06T09:57:35.208Z,75.18
2023-03-06T10:00:14.029Z,75.74
2023-03-06T10:02:49.852Z,75.30
2023-03-06T10:05:21.387Z,76.50
2023-03-06T10:08:16.919Z,76.34
2023-03-06T10:10:50.396Z,76.50
2023-03-06T10:13:26.366Z,76.43
2023-03-06T10:16:02.787Z,77.28
2023-03-06T10:18:29.719Z,77.13
2023-03-06T10:21:18.434Z,77.03
2023-03-06T10:23:54.678Z,76.93
2023-03-06T10:26:31.959Z,76.67
2023-03-06T10:28:59.060Z,76.60
2023-03-06T10:31:27.502Z,76.87
2023-03-06T10:34:11.335Z,77.15
2023-03-06T10:36:38.086Z,77.34
2023-03-06T10:39:14.615Z,77.45
2023-03-06T10:41:41.613Z,78.18
2023-03-06T10:44:09.103Z,78.21
2023-03-06T10:46:44.642Z,78.10
2023-03-06T10:49:23.305Z,77.73
2023-03-06T10:52:02.261Z,77.51
2023-03-06T10:54:34.911Z,77.91
2023-03-06T10:57:26.350Z,78.18
2023-03-06T11:00:05.560Z,78.53
2023-03-06T11:02:39.114Z,78.78
2023-03-06T11:05:18.848Z,78.90
2023-03-06T11:08:00.213Z,79.58
2023-03-06T11:10:29.930Z,79.11
2023-03-06T11:13:17.291Z,79.32
2023-03-06T11:15:59.838Z,79.62
2023-03-06T11:18:42.495Z,79.38
2023-03-06T11:21:31.921Z,79.30
2023-03-06T11:24:20.346Z,79.20
2023-03-06T11:26:56.109Z,79.20
2023-03-06T11:29:37.512Z,79.20
2023-03-06T11:32:27.249Z,79.64
2023-03-06T11:34:59.450Z,79.42
2023-03-06T11:37:45.904Z,79.34
2023-03-06T11:40:20.604Z,79.44
2023-03-06T11:43:33.290Z,79.35
2023-03-06T11:46:10.166Z,79.31
2023-03-06T11:48:52.385Z,79.53
2023-03-06T11:51:27.544Z,79.61
2023-03-06T11:53:54.754Z,79.54
2023-03-06T11:56:52.015Z,79.59
2023-03-06T11:59:37.152Z,80.04
2023-03-06T12:02:26.224Z,80.50
2023-03-06T12:04:59.920Z,80.57
2023-03-06T12:07:38.674Z,80.27
2023-03-06T12:10:11.158Z,80.73
2023-03-06T12:12:57.322Z,80.75
2023-03-06T12:15:27.204Z,80.43
2023-03-06T12:18:36.095Z,80.95
2023-03-06T12:21:11.164Z,81.02
2023-03-06T12:23:59.493Z,81.23
2023-03-06T12:26:38.461Z,81.21
2023-03-06T12:29:42.836Z,81.00
2023-03-06T12:32:36.506Z,81.11
2023-03-06T12:35:25.081Z,81.13
2023-03-06T12:38:00.991Z,81.66
2023-03-06T12:40:39.182Z,82.46
2023-03-06T12:43:40.358Z,82.44
2023-03-06T12:46:19.939Z,81.36
2023-03-06T12:49:11.241Z,81.33
2023-03-06T12:51:39.805Z,81.29
2023-03-06T12:54:06.847Z,81.29
2023-03-06T12:56:34.927Z,82.11
2023-03-06T12:59:02.146Z,82.49
2023-03-06T13:01:48.157Z,83.21
2023-03-06T13:04:55.444Z,82.54
2023-03-06T13:07:52.107Z,82.05
2023-03-06T13:10:35.857Z,81.99
2023-03-06T13:13:31.604Z,81.75
2023-03-06T13:16:12.254Z,82.01
2023-03-06T13:18:42.075Z,82.25
2023-03-06T13:22:00.108Z,82.72
2023-03-06T13:24:40.604Z,83.70
2023-03-06T13:27:11.899Z,83.15
2023-03-06T13:29:38.593Z,82.66
2023-03-06T13:32:16.349Z,82.89
2023-03-06T13:34:46.373Z,83.15
2023-03-06T13:37:13.082Z,83.11
2023-03-06T13:39:52.022Z,83.18
2023-03-06T13:42:53.242Z,83.52
2023-03-06T13:45:42.589Z,83.57
2023-03-06T13:48:44.391Z,84.14
2023-03-06T13:51:24.171Z,84.07
2023-03-06T13:54:11.646Z,83.27
2023-03-06T13:56:54.201Z,83.30
2023-03-06T13:59:39.671Z,83.53
2023-03-06T14:02:22.379Z,84.23
2023-03-06T14:04:58.686Z,84.53
2023-03-06T14:07:31.758Z,84.33
2023-03-06T14:10:03.904Z,84.62
2023-03-06T14:12:35.538Z,84.88
2023-03-06T14:15:17.705Z,85.08
2023-03-06T14:18:05.083Z,85.32
2023-03-06T14:20:41.747Z,85.29
2023-03-06T14:23:20.818Z,85.43
2023-03-06T14:25:54.463Z,85.63
2023-03-06T14:28:23.929Z,85.96
2023-03-06T14:30:52.624Z,86.11
2023-03-06T14:33:31.452Z,86.19
2023-03-06T14:36:02.227Z,86.27
2023-03-06T14:38:34.185Z,86.43
2023-03-06T14:41:02.682Z,86.70
2023-03-06T14:43:31.400Z,86.97
2023-03-06T14:46:01.976Z,86.92
2023-03-06T14:48:44.493Z,87.40
2023-03-06T14:51:18.968Z,87.48
2023-03-06T14:53:48.618Z,87.64
2023-03-06T14:56:20.807Z,87.83
2023-03-06T14:59:01.133Z,87.99
2023-03-06T15:01:38.168Z,87.92
2023-03-06T15:04:43.930Z,88.11
2023-03-06T15:07:17.864Z,88.20
2023-03-06T15:09:49.154Z,88.18
2023-03-06T15:12:22.327Z,88.19
2023-03-06T15:14:55.358Z,87.97
2023-03-06T15:17:24.247Z,87.88
2023-03-06T15:19:54.050Z,88.10
2023-03-06T15:22:30.993Z,88.14
2023-03-06T15:25:08.169Z,88.20
2023-03-06T15:27:35.163Z,88.23
2023-03-06T15:30:13.305Z,88.37
2023-03-06T15:32:42.545Z,88.52
2023-03-06T15:35:52.273Z,88.69
2023-03-06T15:38:44.399Z,88.60
2023-03-06T15:41:30.820Z,88.81
2023-03-06T15:43:59.595Z,88.77
2023-03-06T15:46:27.130Z,88.78
2023-03-06T15:48:58.227Z,88.78
2023-03-06T15:51:25.309Z,88.85
2023-03-06T15:53:55.004Z,88.89
2023-03-06T15:56:32.069Z,88.90
2023-03-06T15:59:00.782Z,88.97
2023-03-06T16:01:27.981Z,88.96
2023-03-06T16:03:55.519Z,89.00
2023-03-06T16:06:24.139Z,89.01
2023-03-06T16:08:51.696Z,88.94
2023-03-06T16:11:43.317Z,88.92
2023-03-06T16:14:34.726Z,88.87
2023-03-06T16:17:02.644Z,88.77
2023-03-06T16:19:29.991Z,88.71
2023-03-06T16:21:57.143Z,88.68
2023-03-06T16:24:25.710Z,88.65
2023-03-06T16:26:54.388Z,88.63
2023-03-06T16:29:23.954Z,88.65
2023-03-06T16:31:51.530Z,88.57
2023-03-06T16:34:21.534Z,88.69
2023-03-06T16:36:49.006Z,88.70
2023-03-06T16:39:18.252Z,88.73
2023-03-06T16:41:49.040Z,88.72
2023-03-06T16:44:16.140Z,88.73
2023-03-06T16:46:45.473Z,88.75
2023-03-06T16:49:17.614Z,88.73
2023-03-06T16:51:44.922Z,88.87
2023-03-06T16:54:12.365Z,88.87
2023-03-06T16:56:39.221Z,88.85
2023-03-06T16:59:06.033Z,88.87
2023-03-06T17:01:33.414Z,88.90
2023-03-06T17:04:00.299Z,88.89
2023-03-06T17:06:28.011Z,88.91
2023-03-06T17:08:57.510Z,88.90
2023-03-06T17:11:24.555Z,88.92
2023-03-06T17:13:51.819Z,88.93
2023-03-06T17:16:18.751Z,88.83
2023-03-06T17:18:47.327Z,88.76
2023-03-06T17:21:17.444Z,88.79
2023-03-06T17:23:44.669Z,88.80
2023-03-06T17:26:18.221Z,88.84
2023-03-06T17:28:46.580Z,88.84
2023-03-06T17:31:17.462Z,88.90
2023-03-06T17:33:45.880Z,88.90
2023-03-06T17:36:16.910Z,88.88
2023-03-06T17:38:44.357Z,88.85
2023-03-06T17:41:12.562Z,88.82
2023-03-06T17:43:40.038Z,88.85
2023-03-06T17:46:08.930Z,88.87
2023-03-06T17:48:36.732Z,88.80
2023-03-06T17:51:03.952Z,88.74
2023-03-06T17:53:31.232Z,88.70
2023-03-06T17:55:59.122Z,88.65
2023-03-06T17:58:26.841Z,88.60
2023-03-06T18:00:54.018Z,88.55
2023-03-06T18:03:22.523Z,88.54
2023-03-06T18:06:03.887Z,88.49
2023-03-06T18:08:31.719Z,88.45
2023-03-06T18:10:59.943Z,88.45
2023-03-06T18:13:26.834Z,88.39
2023-03-06T18:15:54.034Z,88.32
2023-03-06T18:18:20.952Z,88.23
2023-03-06T18:20:48.045Z,88.20
2023-03-06T18:23:15.624Z,88.13
2023-03-06T18:25:43.475Z,88.07
2023-03-06T18:28:10.528Z,88.05
2023-03-06T18:30:40.833Z,88.03
2023-03-06T18:33:08.344Z,88.01
2023-03-06T18:35:36.268Z,87.96
2023-03-06T18:38:03.540Z,87.92
2023-03-06T18:40:30.358Z,87.88
2023-03-06T18:42:57.352Z,87.90
2023-03-06T18:45:24.800Z,87.90
2023-03-06T18:47:51.734Z,87.94
2023-03-06T18:50:18.814Z,88.02
2023-03-06T18:52:46.248Z,87.99
2023-03-06T18:55:13.135Z,87.81
2023-03-06T18:57:40.525Z,87.73
2023-03-06T19:00:08.491Z,87.67
2023-03-06T19:02:36.873Z,87.63
2023-03-06T19:05:04.849Z,87.59
2023-03-06T19:07:31.828Z,87.59
2023-03-06T19:09:58.803Z,87.55
2023-03-06T19:12:28.558Z,87.51
2023-03-06T19:14:56.469Z,87.48
2023-03-06T19:17:24.939Z,87.48
2023-03-06T19:19:52.034Z,87.48
2023-03-06T19:22:19.319Z,87.43
2023-03-06T19:24:47.772Z,87.42
2023-03-06T19:27:15.001Z,87.37
2023-03-06T19:29:42.502Z,87.31
2023-03-06T19:32:10.848Z,87.14
2023-03-06T19:34:38.262Z,86.83
2023-03-06T19:37:05.684Z,86.64
2023-03-06T19:39:32.520Z,86.43
2023-03-06T19:41:59.381Z,86.33
2023-03-06T19:44:26.564Z,86.36
2023-03-06T19:46:53.323Z,86.39
2023-03-06T19:49:21.801Z,86.40
2023-03-06T19:51:48.909Z,86.44
2023-03-06T19:54:16.510Z,86.47
2023-03-06T19:56:44.031Z,86.52
2023-03-06T19:59:11.006Z,86.59
2023-03-06T20:01:38.198Z,86.73
2023-03-06T20:04:05.497Z,86.78
2023-03-06T20:06:36.111Z,86.88
2023-03-06T20:09:06.417Z,87.03
2023-03-06T20:11:33.615Z,87.08
2023-03-06T20:14:02.527Z,87.26
2023-03-06T20:16:29.945Z,87.34
2023-03-06T20:18:59.601Z,87.51
2023-03-06T20:21:28.980Z,87.59
2023-03-06T20:23:57.613Z,87.60
2023-03-06T20:26:26.306Z,87.72
2023-03-06T20:28:54.276Z,87.78
2023-03-06T20:31:24.154Z,87.80
2023-03-06T20:33:52.946Z,87.83
2023-03-06T20:36:27.464Z,87.90
2023-03-06T20:38:55.051Z,87.97
2023-03-06T20:41:24.383Z,88.05
2023-03-06T20:43:51.969Z,88.12
2023-03-06T20:46:20.122Z,88.13
2023-03-06T20:48:49.166Z,88.17
2023-03-06T20:51:17.415Z,88.27
2023-03-06T20:53:46.770Z,88.34
2023-03-06T20:56:15.341Z,88.40
2023-03-06T20:58:43.001Z,88.51
2023-03-06T21:01:23.856Z,88.59
2023-03-06T21:03:51.773Z,88.62
2023-03-06T21:06:20.823Z,88.66
2023-03-06T21:08:47.833Z,88.67
2023-03-06T21:11:16.119Z,88.73
2023-03-06T21:13:43.424Z,88.74
2023-03-06T21:16:13.729Z,88.82
2023-03-06T21:18:41.120Z,88.81
2023-03-06T21:21:14.537Z,88.81
2023-03-06T21:23:42.184Z,88.87
2023-03-06T21:26:14.306Z,88.83
2023-03-06T21:28:41.583Z,88.83
2023-03-06T21:31:10.932Z,88.89
2023-03-06T21:33:38.150Z,88.84
2023-03-06T21:36:06.208Z,88.90
2023-03-06T21:38:34.545Z,88.84
2023-03-06T21:41:16.591Z,88.80
2023-03-06T21:43:44.017Z,88.82
2023-03-06T21:46:11.617Z,88.84
2023-03-06T21:48:38.547Z,88.87
2023-03-06T21:51:11.211Z,88.99
2023-03-06T21:53:41.628Z,89.02
2023-03-06T21:56:09.916Z,89.01
2023-03-06T21:58:37.275Z,89.04
2023-03-06T22:01:12.315Z,89.05
2023-03-06T22:03:39.979Z,89.08
2023-03-06T22:06:18.179Z,89.11
2023-03-06T22:08:46.201Z,89.15
2023-03-06T22:11:16.465Z,89.12
2023-03-06T22:13:45.158Z,89.10
2023-03-06T22:16:12.485Z,89.07
2023-03-06T22:18:39.625Z,89.19
2023-03-06T22:21:11.731Z,89.20
2023-03-06T22:23:40.080Z,89.14
2023-03-06T22:26:18.244Z,89.08
2023-03-06T22:28:45.755Z,89.09
2023-03-06T22:31:23.653Z,89.04
2023-03-06T22:33:52.810Z,89.07
2023-03-06T22:36:21.485Z,89.12
2023-03-06T22:38:52.309Z,89.12
2023-03-06T22:41:19.913Z,89.11
2023-03-06T22:43:47.246Z,89.10
2023-03-06T22:46:16.535Z,89.04
2023-03-06T22:48:44.172Z,89.03
2023-03-06T22:51:17.087Z,89.08
2023-03-06T22:53:45.029Z,89.07
2023-03-06T22:56:15.049Z,88.99
2023-03-06T22:58:44.216Z,89.04
2023-03-06T23:01:16.970Z,89.03
2023-03-06T23:03:47.102Z,88.98
2023-03-06T23:06:19.412Z,88.84
2023-03-06T23:08:53.648Z,88.72
2023-03-06T23:11:21.816Z,88.55
2023-03-06T23:14:07.911Z,88.37
2023-03-06T23:16:53.678Z,88.03
2023-03-06T23:19:39.735Z,87.77
2023-03-06T23:22:25.607Z,87.56
2023-03-06T23:25:11.022Z,87.38
2023-03-06T23:27:38.056Z,87.26
2023-03-06T23:30:10.119Z,87.15
2023-03-06T23:32:37.127Z,87.09
2023-03-06T23:35:04.248Z,87.04
2023-03-06T23:37:31.083Z,87.01
2023-03-06T23:39:58.354Z,86.98
2023-03-06T23:42:25.189Z,86.97
2023-03-06T23:44:51.818Z,86.91
2023-03-06T23:47:19.614Z,86.85
2023-03-06T23:49:46.478Z,86.78
2023-03-06T23:52:13.352Z,86.74
2023-03-06T23:54:40.206Z,86.46
2023-03-06T23:57:07.029Z,86.24
2023-03-06T23:59:33.760Z,85.97
